Terminal Aerodrome Forecast
Issued by NWS

Home | Current Version | Previous Version | Text Only | Print | Product List | Glossary On
Versions: 1 2 3 4 5 6 7 8 9 10 11 12
000
FTUS45 KSLC 180531
TAFOGD
TAF
KOGD 180531Z 1806/1906 16006KT P6SM SKC
     FM181800 28006KT P6SM SKC
     FM190300 16006KT P6SM SKC=

USA.gov is the U.S. government's official web portal to all federal, state and local government web resources and services.